EST,Max TemperatureF,Mean TemperatureF,Min TemperatureF,Max Dew PointF,MeanDew PointF,Min DewpointF,Max Humidity, Mean Humidity, Min Humidity, Max Sea Level PressureIn, Mean Sea Level PressureIn, Min Sea Level PressureIn, Max VisibilityMiles, Mean VisibilityMiles, Min VisibilityMiles, Max Wind SpeedMPH, Mean Wind SpeedMPH, Max Gust SpeedMPH,PrecipitationIn, CloudCover, Events, WindDirDegrees
2014-2-1,56,44,32,26,22,20,64,44,24,30.16,30.06,29.99,10,10,10,16,10,22,0.00,0,,149
2014-2-2,53,44,35,45,39,27,92,69,45,30.06,30.02,29.97,10,8,1,20,7,24,0.33,8,Rain,253
2014-2-3,35,31,27,34,28,25,100,93,85,30.33,30.10,29.89,10,2,0,18,7,24,0.88,8,Fog-Rain-Snow,351
2014-2-4,38,33,27,32,30,25,92,84,76,30.33,30.15,29.89,10,8,0,24,10,35,0.03,8,Fog-Rain,127
2014-2-5,47,34,21,42,29,16,92,81,70,30.22,29.90,29.71,10,7,1,26,14,35,0.10,8,Rain-Snow,276
2014-2-6,25,22,19,16,15,14,84,76,68,30.41,30.29,30.16,10,5,2,16,7,23,0.05,8,Snow,334
2014-2-7,31,25,18,19,16,14,84,74,63,30.40,30.34,30.22,10,10,10,12,5,16,0.00,5,,312
2014-2-8,31,26,21,27,24,16,92,82,72,30.31,30.18,30.08,10,6,1,9,3,11,0.03,8,Snow,290
2014-2-9,35,31,27,32,28,24,92,85,78,30.16,30.05,29.93,10,6,1,16,6,23,0.03,8,Rain-Snow,269
2014-2-10,27,21,15,23,17,9,92,74,55,30.35,30.17,30.05,10,6,1,14,8,18,0.03,6,Snow,331
2014-2-11,30,20,9,12,7,4,88,62,35,30.43,30.38,30.33,10,9,6,12,4,15,0.00,0,,17
2014-2-12,28,22,15,17,12,6,84,65,46,30.36,30.14,29.89,10,4,0,18,9,28,0.43,4,Fog-Snow,110
2014-2-13,30,26,21,27,23,17,92,87,81,29.96,29.69,29.55,10,2,0,17,7,24,0.58,7,Fog-Snow,333
2014-2-14,42,34,25,31,23,17,81,59,36,29.81,29.71,29.58,10,8,2,21,10,27,0.08,4,Rain-Snow,224
2014-2-15,35,27,18,32,21,11,89,78,67,30.14,29.78,29.53,10,4,0,23,13,30,0.11,8,Rain-Snow,293
2014-2-16,31,22,13,22,17,10,84,77,69,30.27,30.08,29.94,10,10,6,22,9,28,T,8,,257
2014-2-17,38,28,18,28,18,13,81,64,47,30.34,30.18,29.95,10,10,6,26,11,40,0.05,5,Rain-Snow,127
2014-2-18,49,41,33,32,22,15,82,55,28,30.21,30.10,29.99,10,10,10,22,10,29,0.04,1,Rain,222
2014-2-19,59,47,34,44,33,18,86,59,31,30.12,29.93,29.82,10,10,6,30,12,41,0.11,5,Rain,246
2014-2-20,59,47,35,46,33,23,71,57,42,30.10,30.00,29.79,10,10,10,23,13,34,T,1,,150
2014-2-21,61,49,36,50,35,15,89,59,28,30.08,29.84,29.64,10,7,2,24,13,39,0.23,5,Rain,254
2014-2-22,56,42,28,18,16,13,63,41,19,30.17,30.09,30.01,10,10,10,21,8,28,0.00,0,,215
2014-2-23,60,46,32,33,24,16,92,58,24,30.05,29.99,29.89,10,9,2,24,10,29,0.06,4,Rain-Snow,274
2014-2-24,36,30,23,29,17,6,92,61,29,30.22,30.12,30.02,10,9,2,23,10,31,T,4,Snow,309
2014-2-25,34,29,24,17,13,8,74,59,43,30.16,30.10,30.03,10,10,10,20,7,26,T,6,,317
2014-2-26,26,21,15,19,14,7,84,69,54,30.06,29.94,29.83,10,5,0,15,8,22,0.04,7,Fog-Snow,316
2014-2-27,31,23,14,7,4,-1,67,51,34,30.10,29.93,29.86,10,10,10,25,13,35,0.00,0,,282
2014-2-28,42,26,9,11,5,0,66,46,25,30.25,30.20,30.12,10,10,10,16,7,26,0.00,0,,125